createdAt,value
2023-04-04T00:00:39.101Z,-0.20
2023-04-04T00:03:06.744Z,-0.20
2023-04-04T00:05:35.763Z,-0.20
2023-04-04T00:08:04.275Z,-0.20
2023-04-04T00:10:31.704Z,-0.20
2023-04-04T00:12:59.054Z,-0.20
2023-04-04T00:15:26.404Z,-0.20
2023-04-04T00:17:53.893Z,-0.20
2023-04-04T00:20:21.106Z,-0.30
2023-04-04T00:22:48.359Z,-0.30
2023-04-04T00:25:15.734Z,-0.30
2023-04-04T00:27:43.071Z,-0.30
2023-04-04T00:30:12.403Z,-0.30
2023-04-04T00:32:39.652Z,-0.20
2023-04-04T00:35:07.293Z,-0.20
2023-04-04T00:37:35.703Z,-0.10
2023-04-04T00:40:04.165Z,-0.10
2023-04-04T00:42:31.478Z,-0.20
2023-04-04T00:44:58.861Z,-0.20
2023-04-04T00:47:30.179Z,-0.10
2023-04-04T00:49:57.478Z,-0.10
2023-04-04T00:52:24.969Z,0.00
2023-04-04T00:54:52.735Z,0.00
2023-04-04T00:57:19.975Z,-0.10
2023-04-04T00:59:47.584Z,0.00
2023-04-04T01:02:14.983Z,-0.10
2023-04-04T01:04:42.770Z,-0.10
2023-04-04T01:07:10.079Z,-0.20
2023-04-04T01:09:37.461Z,-0.20
2023-04-04T01:12:04.698Z,-0.30
2023-04-04T01:14:33.326Z,-0.20
2023-04-04T01:17:03.194Z,-0.20
2023-04-04T01:19:36.259Z,-0.30
2023-04-04T01:22:09.630Z,-0.30
2023-04-04T01:24:38.239Z,-0.40
2023-04-04T01:27:06.711Z,-0.40
2023-04-04T01:29:39.629Z,-0.50
2023-04-04T01:32:19.962Z,-0.50
2023-04-04T01:35:06.442Z,-0.60
2023-04-04T01:37:44.580Z,-0.60
2023-04-04T01:40:21.569Z,-0.60
2023-04-04T01:42:52.428Z,-0.60
2023-04-04T01:45:23.071Z,-0.70
2023-04-04T01:47:51.998Z,-0.70
2023-04-04T01:50:23.299Z,-0.60
2023-04-04T01:52:50.676Z,-0.60
2023-04-04T01:55:17.872Z,-0.50
2023-04-04T01:57:45.118Z,-0.50
2023-04-04T02:00:13.045Z,-0.50
2023-04-04T02:02:46.000Z,-0.50
2023-04-04T02:05:14.332Z,-0.50
2023-04-04T02:07:41.823Z,-0.60
2023-04-04T02:10:20.670Z,-0.60
2023-04-04T02:12:48.119Z,-0.60
2023-04-04T02:15:15.284Z,-0.70
2023-04-04T02:17:48.692Z,-0.70
2023-04-04T02:20:18.588Z,-0.80
2023-04-04T02:22:56.196Z,-0.80
2023-04-04T02:25:25.046Z,-0.80
2023-04-04T02:27:52.596Z,-0.80
2023-04-04T02:30:20.998Z,-0.80
2023-04-04T02:32:50.252Z,-0.80
2023-04-04T02:35:19.771Z,-0.90
2023-04-04T02:37:47.533Z,-0.80
2023-04-04T02:40:21.677Z,-0.80
2023-04-04T02:42:48.879Z,-1.00
2023-04-04T02:45:16.435Z,-0.80
2023-04-04T02:47:51.799Z,-0.90
2023-04-04T02:50:23.081Z,-0.90
2023-04-04T02:53:03.284Z,-0.90
2023-04-04T02:55:33.717Z,-1.00
2023-04-04T02:58:04.148Z,-1.00
2023-04-04T03:00:31.293Z,-1.00
2023-04-04T03:02:58.794Z,-1.00
2023-04-04T03:05:34.503Z,-1.00
2023-04-04T03:08:02.958Z,-1.00
2023-04-04T03:10:31.133Z,-1.10
2023-04-04T03:12:58.715Z,-1.10
2023-04-04T03:15:27.667Z,-1.10
2023-04-04T03:17:55.049Z,-1.10
2023-04-04T03:20:26.389Z,-1.10
2023-04-04T03:22:53.609Z,-1.10
2023-04-04T03:25:21.675Z,-1.10
2023-04-04T03:27:48.786Z,-1.10
2023-04-04T03:30:22.655Z,-1.10
2023-04-04T03:32:51.018Z,-1.10
2023-04-04T03:35:18.221Z,-1.00
2023-04-04T03:37:45.477Z,-1.30
2023-04-04T03:40:13.995Z,-0.80
2023-04-04T03:42:42.051Z,-0.70
2023-04-04T03:45:11.751Z,-0.60
2023-04-04T03:47:40.994Z,-0.60
2023-04-04T03:50:08.719Z,-0.60
2023-04-04T03:52:42.231Z,-0.70
2023-04-04T03:55:10.000Z,-0.70
2023-04-04T03:57:37.751Z,-0.80
2023-04-04T04:00:09.749Z,-0.80
2023-04-04T04:02:40.634Z,-0.90
2023-04-04T04:05:09.973Z,-1.00
2023-04-04T04:07:37.114Z,-1.00
2023-04-04T04:10:05.385Z,-1.10
2023-04-04T04:12:33.176Z,-1.00
2023-04-04T04:15:00.375Z,-1.10
2023-04-04T04:17:29.739Z,-1.10
2023-04-04T04:19:57.473Z,-1.10
2023-04-04T04:22:25.817Z,-1.10
2023-04-04T04:24:52.977Z,-1.10
2023-04-04T04:27:20.109Z,-1.10
2023-04-04T04:29:47.992Z,-1.10
2023-04-04T04:32:18.788Z,-1.10
2023-04-04T04:34:49.904Z,-1.10
2023-04-04T04:37:21.693Z,-1.10
2023-04-04T04:39:53.114Z,-1.10
2023-04-04T04:42:37.414Z,-1.00
2023-04-04T04:45:06.816Z,-1.10
2023-04-04T04:47:37.540Z,-1.10
2023-04-04T04:50:08.283Z,-1.10
2023-04-04T04:52:39.544Z,-1.10
2023-04-04T04:55:07.600Z,-1.10
2023-04-04T04:57:38.684Z,-1.00
2023-04-04T05:00:13.947Z,-1.00
2023-04-04T05:02:43.791Z,-1.00
2023-04-04T05:05:13.355Z,-1.00
2023-04-04T05:07:46.594Z,-1.10
2023-04-04T05:10:14.179Z,-1.00
2023-04-04T05:12:45.902Z,0.50
2023-04-04T05:15:19.426Z,-1.00
2023-04-04T05:17:50.650Z,-1.00
2023-04-04T05:20:17.879Z,-0.90
2023-04-04T05:22:50.307Z,-0.90
2023-04-04T05:25:25.283Z,-0.90
2023-04-04T05:27:52.571Z,-0.80
2023-04-04T05:30:21.900Z,-0.80
2023-04-04T05:32:58.984Z,-0.70
2023-04-04T05:35:29.219Z,-0.50
2023-04-04T05:37:58.435Z,-0.30
2023-04-04T05:40:25.835Z,-0.20
2023-04-04T05:43:04.391Z,-0.20
2023-04-04T05:45:40.680Z,-0.10
2023-04-04T05:48:09.572Z,-0.20
2023-04-04T05:50:47.737Z,-0.20
2023-04-04T05:53:17.309Z,-0.20
2023-04-04T05:55:53.159Z,-0.20
2023-04-04T05:58:21.974Z,-0.20
2023-04-04T06:00:54.446Z,-0.10
2023-04-04T06:03:22.298Z,0.00
2023-04-04T06:05:53.732Z,0.10
2023-04-04T06:08:21.308Z,0.40
2023-04-04T06:10:48.584Z,0.60
2023-04-04T06:13:15.828Z,0.80
2023-04-04T06:15:48.969Z,1.00
2023-04-04T06:18:17.473Z,1.20
2023-04-04T06:20:44.610Z,1.40
2023-04-04T06:23:11.870Z,1.60
2023-04-04T06:25:44.208Z,1.70
2023-04-04T06:28:15.921Z,1.90
2023-04-04T06:30:45.143Z,2.10
2023-04-04T06:33:14.858Z,2.30
2023-04-04T06:35:46.772Z,2.60
2023-04-04T06:38:15.513Z,2.80
2023-04-04T06:40:43.074Z,3.10
2023-04-04T06:43:13.198Z,3.30
2023-04-04T06:45:45.215Z,3.60
2023-04-04T06:48:12.724Z,3.80
2023-04-04T06:50:41.042Z,4.10
2023-04-04T06:53:13.241Z,4.20
2023-04-04T06:55:40.540Z,4.50
2023-04-04T06:58:08.182Z,4.40
2023-04-04T07:00:38.194Z,4.20
2023-04-04T07:03:08.289Z,4.30
2023-04-04T07:05:39.922Z,4.80
2023-04-04T07:08:07.211Z,5.00
2023-04-04T07:10:34.983Z,5.30
2023-04-04T07:13:02.460Z,5.40
2023-04-04T07:15:30.024Z,5.40
2023-04-04T07:17:57.558Z,5.40
2023-04-04T07:20:25.827Z,5.50
2023-04-04T07:22:53.324Z,5.80
2023-04-04T07:25:22.979Z,6.00
2023-04-04T07:27:57.320Z,6.70
2023-04-04T07:30:33.371Z,7.40
2023-04-04T07:33:01.337Z,6.30
2023-04-04T07:35:29.100Z,6.50
2023-04-04T07:37:56.515Z,6.70
2023-04-04T07:40:23.922Z,6.80
2023-04-04T07:42:51.915Z,6.80
2023-04-04T07:45:51.095Z,7.30
2023-04-04T07:48:28.033Z,7.70
2023-04-04T07:50:55.887Z,7.60
2023-04-04T07:53:24.181Z,7.60
2023-04-04T07:55:52.037Z,7.60
2023-04-04T07:58:19.515Z,7.90
2023-04-04T08:00:47.172Z,8.10
2023-04-04T08:03:15.140Z,8.40
2023-04-04T08:05:42.777Z,8.80
2023-04-04T08:08:10.256Z,8.90
2023-04-04T08:10:37.752Z,9.20
2023-04-04T08:13:06.039Z,9.30
2023-04-04T08:15:34.084Z,9.30
2023-04-04T08:18:01.910Z,9.60
2023-04-04T08:20:30.218Z,10.00
2023-04-04T08:22:58.814Z,10.20
2023-04-04T08:25:27.156Z,10.40
2023-04-04T08:27:54.676Z,10.50
2023-04-04T08:30:22.309Z,10.10
2023-04-04T08:32:49.896Z,10.00
2023-04-04T08:35:17.562Z,9.60
2023-04-04T08:37:46.429Z,9.00
2023-04-04T08:40:14.883Z,8.80
2023-04-04T08:42:44.377Z,9.20
2023-04-04T08:45:13.125Z,9.50
2023-04-04T08:47:43.123Z,9.40
2023-04-04T08:50:10.833Z,9.30
2023-04-04T08:52:39.440Z,9.30
2023-04-04T08:55:08.260Z,9.30
2023-04-04T08:57:36.037Z,9.70
2023-04-04T09:00:06.287Z,10.40
2023-04-04T09:02:58.148Z,10.00
2023-04-04T09:05:26.271Z,9.90
2023-04-04T09:07:54.939Z,9.80
2023-04-04T09:10:23.491Z,10.00
2023-04-04T09:12:53.946Z,10.10
2023-04-04T09:15:23.356Z,10.10
2023-04-04T09:17:50.705Z,9.90
2023-04-04T09:20:48.780Z,9.80
2023-04-04T09:23:20.276Z,9.90
2023-04-04T09:26:03.286Z,9.90
2023-04-04T09:28:33.108Z,10.00
2023-04-04T09:31:04.627Z,10.40
2023-04-04T09:33:35.638Z,10.40
2023-04-04T09:36:08.234Z,10.10
2023-04-04T09:38:40.277Z,10.00
2023-04-04T09:41:12.141Z,10.40
2023-04-04T09:43:45.775Z,10.70
2023-04-04T09:46:13.289Z,10.70
2023-04-04T09:48:42.001Z,10.40
2023-04-04T09:51:13.048Z,10.40
2023-04-04T09:53:43.636Z,10.70
2023-04-04T09:56:11.651Z,10.90
2023-04-04T09:58:49.239Z,11.10
2023-04-04T10:01:25.016Z,11.30
2023-04-04T10:03:57.265Z,11.30
2023-04-04T10:06:25.625Z,11.10
2023-04-04T10:08:53.523Z,10.70
2023-04-04T10:11:36.455Z,10.80
2023-04-04T10:14:04.770Z,11.10
2023-04-04T10:16:34.853Z,11.20
2023-04-04T10:19:05.068Z,11.30
2023-04-04T10:21:32.742Z,11.20
2023-04-04T10:24:03.426Z,11.50
2023-04-04T10:26:30.913Z,11.80
2023-04-04T10:28:58.353Z,12.00
2023-04-04T10:31:27.359Z,12.10
2023-04-04T10:34:07.295Z,12.00
2023-04-04T10:36:50.777Z,11.90
2023-04-04T10:39:30.042Z,12.10
2023-04-04T10:41:58.826Z,12.30
2023-04-04T10:44:50.194Z,12.30
2023-04-04T10:47:28.725Z,12.30
2023-04-04T10:49:58.090Z,13.10
2023-04-04T10:52:28.956Z,13.60
2023-04-04T10:55:01.761Z,13.80
2023-04-04T10:57:30.081Z,13.70
2023-04-04T11:00:05.629Z,13.80
2023-04-04T11:02:59.530Z,13.60
2023-04-04T11:05:42.463Z,12.70
2023-04-04T11:08:14.453Z,12.30
2023-04-04T11:10:44.717Z,11.90
2023-04-04T11:13:22.864Z,12.00
2023-04-04T11:15:59.987Z,12.70
2023-04-04T11:18:42.412Z,12.80
2023-04-04T11:21:16.711Z,12.70
2023-04-04T11:24:02.375Z,13.10
2023-04-04T11:26:30.256Z,13.50
2023-04-04T11:29:08.123Z,13.60
2023-04-04T11:31:45.823Z,13.90
2023-04-04T11:34:16.111Z,14.20
2023-04-04T11:36:45.247Z,14.50
2023-04-04T11:39:24.879Z,14.20
2023-04-04T11:42:11.966Z,14.10
2023-04-04T11:45:05.060Z,13.70
2023-04-04T11:47:32.795Z,14.30
2023-04-04T11:50:02.522Z,14.50
2023-04-04T11:52:38.417Z,14.70
2023-04-04T11:55:20.424Z,15.10
2023-04-04T11:57:48.200Z,14.50
2023-04-04T12:00:32.544Z,14.90
2023-04-04T12:03:00.225Z,15.30
2023-04-04T12:05:29.003Z,16.10
2023-04-04T12:07:56.654Z,16.20
2023-04-04T12:10:24.773Z,15.70
2023-04-04T12:12:57.064Z,16.30
2023-04-04T12:15:25.154Z,17.40
2023-04-04T12:17:52.527Z,18.30
2023-04-04T12:20:24.300Z,19.10
2023-04-04T12:22:52.314Z,18.60
2023-04-04T12:25:24.088Z,18.30
2023-04-04T12:27:53.534Z,18.20
2023-04-04T12:30:21.497Z,18.00
2023-04-04T12:32:50.400Z,18.90
2023-04-04T12:35:18.829Z,19.80
2023-04-04T12:38:08.238Z,19.40
2023-04-04T12:40:38.401Z,19.60
2023-04-04T12:43:08.940Z,19.60
2023-04-04T12:45:41.325Z,19.30
2023-04-04T12:48:14.994Z,18.70
2023-04-04T12:50:54.427Z,18.10
2023-04-04T12:53:29.567Z,16.80
2023-04-04T12:56:05.245Z,15.60
2023-04-04T12:58:35.160Z,14.50
2023-04-04T13:01:04.736Z,13.20
2023-04-04T13:03:34.785Z,13.10
2023-04-04T13:06:02.687Z,13.60
2023-04-04T13:08:30.232Z,14.00
2023-04-04T13:11:06.221Z,14.10
2023-04-04T13:13:34.697Z,14.30
2023-04-04T13:16:04.582Z,14.40
2023-04-04T13:18:39.321Z,14.50
2023-04-04T13:21:09.767Z,14.50
2023-04-04T13:23:39.722Z,14.90
2023-04-04T13:26:09.343Z,15.50
2023-04-04T13:28:37.022Z,15.10
2023-04-04T13:31:06.495Z,15.50
2023-04-04T13:33:34.317Z,15.80
2023-04-04T13:36:02.319Z,15.70
2023-04-04T13:38:30.733Z,15.40
2023-04-04T13:40:59.321Z,14.50
2023-04-04T13:43:27.109Z,14.10
2023-04-04T13:45:55.875Z,14.00
2023-04-04T13:48:23.567Z,14.20
2023-04-04T13:50:55.468Z,14.30
2023-04-04T13:53:23.145Z,14.40
2023-04-04T13:56:16.327Z,14.10
2023-04-04T13:58:39.260Z,14.50
2023-04-04T14:01:09.400Z,14.40
2023-04-04T14:03:37.247Z,14.70
2023-04-04T14:06:10.546Z,16.10
2023-04-04T14:08:39.906Z,17.30
2023-04-04T14:11:07.935Z,18.00
2023-04-04T14:13:36.410Z,17.40
2023-04-04T14:16:04.317Z,15.90
2023-04-04T14:18:31.937Z,14.60
2023-04-04T14:20:59.385Z,13.60
2023-04-04T14:23:27.326Z,12.80
2023-04-04T14:25:55.008Z,12.20
2023-04-04T14:28:22.483Z,11.60
2023-04-04T14:30:53.066Z,11.20
2023-04-04T14:33:20.530Z,10.40
2023-04-04T14:35:47.888Z,10.00
2023-04-04T14:38:16.522Z,9.70
2023-04-04T14:40:43.850Z,9.70
2023-04-04T14:43:11.191Z,9.50
2023-04-04T14:45:38.888Z,9.40
2023-04-04T14:48:06.861Z,9.40
2023-04-04T14:50:34.237Z,9.40
2023-04-04T14:53:01.611Z,9.40
2023-04-04T14:55:29.010Z,9.20
2023-04-04T14:58:02.605Z,9.20
2023-04-04T15:00:31.569Z,9.10
2023-04-04T15:02:59.562Z,9.00
2023-04-04T15:05:27.371Z,9.00
2023-04-04T15:07:55.729Z,8.90
2023-04-04T15:10:23.552Z,8.90
2023-04-04T15:12:50.953Z,8.90
2023-04-04T15:15:18.352Z,8.90
2023-04-04T15:17:45.874Z,8.80
2023-04-04T15:20:13.903Z,8.70
2023-04-04T15:22:41.656Z,8.80
2023-04-04T15:25:09.782Z,9.50
2023-04-04T15:27:37.497Z,8.70
2023-04-04T15:30:06.174Z,8.60
2023-04-04T15:32:33.610Z,8.70
2023-04-04T15:35:02.304Z,8.70
2023-04-04T15:37:29.705Z,8.60
2023-04-04T15:39:57.400Z,8.60
2023-04-04T15:42:26.113Z,8.60
2023-04-04T15:44:53.808Z,8.40
2023-04-04T15:47:21.572Z,8.30
2023-04-04T15:49:49.372Z,8.40
2023-04-04T15:52:17.430Z,8.30
2023-04-04T15:54:44.938Z,8.20
2023-04-04T15:57:12.418Z,8.30
2023-04-04T15:59:39.808Z,8.40
2023-04-04T16:02:07.531Z,8.30
2023-04-04T16:04:36.044Z,8.10
2023-04-04T16:07:03.642Z,8.10
2023-04-04T16:09:31.363Z,8.20
2023-04-04T16:11:59.212Z,8.30
2023-04-04T16:14:26.783Z,8.30
2023-04-04T16:16:54.677Z,8.30
2023-04-04T16:19:22.277Z,8.40
2023-04-04T16:21:49.692Z,8.40
2023-04-04T16:24:17.522Z,8.40
2023-04-04T16:26:48.883Z,8.40
2023-04-04T16:29:21.317Z,8.40
2023-04-04T16:31:48.897Z,8.20
2023-04-04T16:34:16.435Z,8.20
2023-04-04T16:36:44.143Z,8.10
2023-04-04T16:39:11.598Z,7.90
2023-04-04T16:41:41.063Z,7.90
2023-04-04T16:44:08.593Z,7.70
2023-04-04T16:46:36.462Z,7.70
2023-04-04T16:49:03.887Z,7.60
2023-04-04T16:51:32.154Z,7.70
2023-04-04T16:53:59.635Z,7.60
2023-04-04T16:56:27.080Z,7.50
2023-04-04T16:58:54.683Z,7.50
2023-04-04T17:01:23.142Z,7.50
2023-04-04T17:03:50.629Z,7.50
2023-04-04T17:06:18.290Z,7.50
2023-04-04T17:08:46.746Z,7.50
2023-04-04T17:11:14.304Z,7.50
2023-04-04T17:13:41.768Z,7.50
2023-04-04T17:16:09.717Z,7.40
2023-04-04T17:18:37.291Z,7.40
2023-04-04T17:21:06.487Z,7.30
2023-04-04T17:23:33.908Z,7.20
2023-04-04T17:26:01.551Z,7.10
2023-04-04T17:28:28.911Z,7.00
2023-04-04T17:30:58.795Z,6.90
2023-04-04T17:33:27.498Z,6.40
2023-04-04T17:35:55.250Z,6.80
2023-04-04T17:38:22.778Z,6.70
2023-04-04T17:40:50.609Z,6.70
2023-04-04T17:43:18.085Z,6.70
2023-04-04T17:45:45.738Z,6.60
2023-04-04T17:48:13.519Z,6.60
2023-04-04T17:50:43.075Z,6.50
2023-04-04T17:53:11.347Z,6.40
2023-04-04T17:55:40.594Z,6.40
2023-04-04T17:58:08.030Z,6.30
2023-04-04T18:00:35.956Z,6.30
2023-04-04T18:03:03.636Z,6.20
2023-04-04T18:05:32.880Z,6.20
2023-04-04T18:08:04.757Z,6.20
2023-04-04T18:10:32.609Z,6.10
2023-04-04T18:12:59.995Z,6.10
2023-04-04T18:15:27.419Z,6.00
2023-04-04T18:17:54.882Z,6.00
2023-04-04T18:20:34.004Z,6.00
2023-04-04T18:23:04.196Z,5.90
2023-04-04T18:25:33.981Z,5.90
2023-04-04T18:28:02.069Z,5.80
2023-04-04T18:30:29.732Z,5.70
2023-04-04T18:32:58.286Z,5.70
2023-04-04T18:35:29.762Z,5.70
2023-04-04T18:37:57.491Z,5.50
2023-04-04T18:40:24.922Z,5.60
2023-04-04T18:42:53.911Z,5.60
2023-04-04T18:45:29.845Z,5.50
2023-04-04T18:48:01.920Z,5.50
2023-04-04T18:50:29.291Z,5.40
2023-04-04T18:52:56.896Z,5.30
2023-04-04T18:55:24.448Z,5.00
2023-04-04T18:57:53.893Z,4.80
2023-04-04T19:00:22.925Z,4.70
2023-04-04T19:02:53.133Z,4.60
2023-04-04T19:05:24.691Z,4.40
2023-04-04T19:07:54.310Z,4.40
2023-04-04T19:10:22.135Z,4.40
2023-04-04T19:12:49.393Z,4.30
2023-04-04T19:15:16.691Z,4.30
2023-04-04T19:17:43.931Z,4.40
2023-04-04T19:20:12.755Z,4.40
2023-04-04T19:22:39.852Z,4.20
2023-04-04T19:25:07.656Z,4.30
2023-04-04T19:27:35.020Z,4.20
2023-04-04T19:30:12.454Z,4.10
2023-04-04T19:32:39.634Z,4.00
2023-04-04T19:35:21.579Z,4.00
2023-04-04T19:37:48.866Z,4.10
2023-04-04T19:40:16.533Z,4.00
2023-04-04T19:42:43.648Z,4.00
2023-04-04T19:45:13.115Z,3.90
2023-04-04T19:47:40.388Z,3.90
2023-04-04T19:50:08.837Z,3.90
2023-04-04T19:52:37.045Z,3.90
2023-04-04T19:55:09.711Z,3.90
2023-04-04T19:57:38.014Z,3.90
2023-04-04T20:00:13.729Z,4.00
2023-04-04T20:02:49.355Z,4.00
2023-04-04T20:05:34.836Z,3.90
2023-04-04T20:08:01.939Z,3.90
2023-04-04T20:10:41.048Z,3.90
2023-04-04T20:13:09.389Z,4.00
2023-04-04T20:15:48.706Z,4.00
2023-04-04T20:18:24.439Z,4.00
2023-04-04T20:21:03.363Z,4.10
2023-04-04T20:23:34.310Z,4.10
2023-04-04T20:26:06.826Z,4.10
2023-04-04T20:28:36.104Z,4.10
2023-04-04T20:31:10.215Z,4.10
2023-04-04T20:33:40.782Z,4.10
2023-04-04T20:36:31.646Z,4.20
2023-04-04T20:38:59.552Z,4.20
2023-04-04T20:41:26.882Z,4.20
2023-04-04T20:43:57.823Z,4.10
2023-04-04T20:46:27.214Z,4.10
2023-04-04T20:48:58.268Z,4.10
2023-04-04T20:51:31.855Z,4.00
2023-04-04T20:54:01.909Z,3.90
2023-04-04T20:56:41.218Z,3.90
2023-04-04T20:59:36.680Z,3.80
2023-04-04T21:02:16.638Z,3.70
2023-04-04T21:04:45.803Z,3.60
2023-04-04T21:07:39.299Z,3.60
2023-04-04T21:10:25.593Z,3.60
2023-04-04T21:12:53.863Z,3.60
2023-04-04T21:15:33.632Z,3.60
2023-04-04T21:18:07.215Z,3.70
2023-04-04T21:20:46.848Z,3.70
2023-04-04T21:23:26.332Z,3.70
2023-04-04T21:25:59.982Z,3.60
2023-04-04T21:28:33.130Z,3.50
2023-04-04T21:31:04.023Z,3.50
2023-04-04T21:33:33.650Z,3.50
2023-04-04T21:36:00.977Z,3.50
2023-04-04T21:38:34.126Z,3.50
2023-04-04T21:41:12.919Z,3.50
2023-04-04T21:43:40.016Z,3.60
2023-04-04T21:46:24.042Z,3.60
2023-04-04T21:48:52.418Z,3.70
2023-04-04T21:51:19.980Z,3.70
2023-04-04T21:53:50.973Z,3.70
2023-04-04T21:56:19.498Z,3.70
2023-04-04T21:58:47.321Z,3.70
2023-04-04T22:01:14.772Z,3.50
2023-04-04T22:03:42.005Z,3.40
2023-04-04T22:06:10.278Z,3.30
2023-04-04T22:08:37.500Z,3.10
2023-04-04T22:11:05.916Z,3.10
2023-04-04T22:13:33.341Z,3.10
2023-04-04T22:16:02.614Z,3.10
2023-04-04T22:18:30.909Z,3.10
2023-04-04T22:21:11.188Z,3.10
2023-04-04T22:23:40.078Z,3.00
2023-04-04T22:26:11.104Z,3.00
2023-04-04T22:28:39.401Z,3.00
2023-04-04T22:31:07.963Z,3.00
2023-04-04T22:33:35.365Z,3.00
2023-04-04T22:36:03.190Z,3.00
2023-04-04T22:38:30.553Z,3.00
2023-04-04T22:40:58.671Z,3.00
2023-04-04T22:43:26.037Z,2.90
2023-04-04T22:45:53.571Z,2.80
2023-04-04T22:48:24.667Z,2.70
2023-04-04T22:50:56.097Z,2.70
2023-04-04T22:53:26.764Z,2.60
2023-04-04T22:55:59.741Z,2.70
2023-04-04T22:58:26.890Z,2.60
2023-04-04T23:00:54.014Z,2.60
2023-04-04T23:03:21.272Z,2.60
2023-04-04T23:05:48.390Z,2.60
2023-04-04T23:08:15.717Z,2.60
2023-04-04T23:10:43.032Z,2.50
2023-04-04T23:13:10.510Z,2.50
2023-04-04T23:15:38.054Z,2.50
2023-04-04T23:18:05.701Z,2.40
2023-04-04T23:20:33.187Z,2.30
2023-04-04T23:23:00.578Z,2.30
2023-04-04T23:25:27.822Z,2.30
2023-04-04T23:27:55.046Z,2.30
2023-04-04T23:30:23.345Z,2.30
2023-04-04T23:32:50.692Z,2.30
2023-04-04T23:35:17.919Z,2.40
2023-04-04T23:37:45.761Z,2.30
2023-04-04T23:40:13.158Z,2.40
2023-04-04T23:42:40.932Z,2.40
2023-04-04T23:45:09.216Z,2.30
2023-04-04T23:47:37.029Z,2.30
2023-04-04T23:50:04.983Z,2.40
2023-04-04T23:52:32.139Z,2.40
2023-04-04T23:54:59.302Z,2.50
2023-04-04T23:57:26.503Z,2.50
2023-04-04T23:59:53.620Z,2.60
